Time;durP1;ratioP1;P1;durP2;ratioP2;P2;SDS_P1;SDS_P2;PMS_P1;PMS_P2;Temp;Humidity;BMP_temperature;BMP_pressure;BME280_temperature;BME280_humidity;BME280_pressure;Samples;Min_cycle;Max_cycle;Signal;HPM_P1;HPM_P2
2021/12/22 00:00:02;;;;;;;;;;;-3.00;99.90;;;;;;5072361;28;19955;-42
2021/12/22 00:02:31;;;;;;;;;;;-3.10;99.90;;;;;;5070107;28;19978;-42
2021/12/22 00:05:00;;;;;;;;;;;-3.10;99.90;;;;;;5064334;28;20019;-43
2021/12/22 00:07:26;;;;;;;;;;;-3.20;99.90;;;;;;5068876;28;20003;-43
2021/12/22 00:09:53;;;;;;;;;;;-3.20;99.90;;;;;;5071449;28;19951;-43
2021/12/22 00:12:20;;;;;;;;;;;-3.20;99.90;;;;;;5072526;28;19925;-43
2021/12/22 00:14:47;;;;;;;;;;;-3.20;99.90;;;;;;5071023;28;19924;-44
2021/12/22 00:17:13;;;;;;;;;;;-3.20;99.90;;;;;;5066998;28;20011;-42
2021/12/22 00:19:41;;;;;;;;;;;-3.20;99.90;;;;;;5070844;28;20011;-43
2021/12/22 00:22:09;;;;;;;;;;;-3.30;99.90;;;;;;5072301;28;19971;-43
2021/12/22 00:24:35;;;;;;;;;;;-3.30;99.90;;;;;;5071829;28;19931;-42
2021/12/22 00:27:03;;;;;;;;;;;-3.30;99.90;;;;;;5071116;28;20008;-42
2021/12/22 00:29:30;;;;;;;;;;;-3.40;99.90;;;;;;5073418;28;19974;-42
2021/12/22 00:32:08;;;;;;;;;;;-3.40;99.90;;;;;;5074808;28;19931;-46
2021/12/22 00:34:36;;;;;;;;;;;-3.40;99.90;;;;;;5075982;28;19924;-42
2021/12/22 00:37:02;;;;;;;;;;;-3.40;99.90;;;;;;5071667;28;19999;-43
2021/12/22 00:39:30;;;;;;;;;;;-3.50;99.90;;;;;;5073433;28;19931;-43
2021/12/22 00:41:57;;;;;;;;;;;-3.50;99.90;;;;;;5075855;28;19932;-43
2021/12/22 00:44:25;;;;;;;;;;;-3.50;99.90;;;;;;5071632;28;20015;-42
2021/12/22 00:46:52;;;;;;;;;;;-3.50;99.90;;;;;;5072117;28;19924;-43
2021/12/22 00:49:19;;;;;;;;;;;-3.50;99.90;;;;;;5069671;28;19925;-42
2021/12/22 00:51:46;;;;;;;;;;;-3.60;99.90;;;;;;5072728;28;19925;-44
2021/12/22 00:54:12;;;;;;;;;;;-3.50;99.90;;;;;;5075774;28;19925;-45
2021/12/22 00:56:41;;;;;;;;;;;-3.50;99.90;;;;;;5075688;28;19983;-43
2021/12/22 00:59:07;;;;;;;;;;;-3.50;99.90;;;;;;5075193;28;19924;-43
2021/12/22 01:01:34;;;;;;;;;;;-3.50;99.90;;;;;;5072654;28;20308;-42
2021/12/22 01:04:01;;;;;;;;;;;-3.60;99.90;;;;;;5074202;28;20315;-42
2021/12/22 01:06:28;;;;;;;;;;;-3.50;99.90;;;;;;5073848;28;19994;-43
2021/12/22 01:08:54;;;;;;;;;;;-3.60;99.90;;;;;;5081820;28;19971;-42
2021/12/22 01:11:21;;;;;;;;;;;-3.60;99.90;;;;;;5075465;28;19924;-43
2021/12/22 01:13:49;;;;;;;;;;;-3.60;99.90;;;;;;5075275;28;19924;-42
2021/12/22 01:16:16;;;;;;;;;;;-3.60;99.90;;;;;;5073859;28;20383;-43
2021/12/22 01:18:43;;;;;;;;;;;-3.60;99.90;;;;;;5075189;28;20343;-42
2021/12/22 01:21:16;;;;;;;;;;;-3.70;99.90;;;;;;5073990;28;19969;-42
2021/12/22 01:23:59;;;;;;;;;;;-3.60;99.90;;;;;;5074996;28;19925;-43
2021/12/22 01:26:26;;;;;;;;;;;-3.70;99.90;;;;;;5067817;28;19924;-43
2021/12/22 01:28:54;;;;;;;;;;;-3.70;99.90;;;;;;5080894;28;20433;-43
2021/12/22 01:31:21;;;;;;;;;;;-3.70;99.90;;;;;;5068388;28;19925;-45
2021/12/22 01:33:48;;;;;;;;;;;-3.80;99.90;;;;;;5074928;28;19970;-44
2021/12/22 01:36:15;;;;;;;;;;;-3.70;99.90;;;;;;5074142;28;19934;-43
2021/12/22 01:38:41;;;;;;;;;;;-3.80;99.90;;;;;;5070871;28;20439;-43
2021/12/22 01:41:08;;;;;;;;;;;-3.70;99.90;;;;;;5071628;28;19925;-43
2021/12/22 01:43:35;;;;;;;;;;;-3.80;99.90;;;;;;5070173;28;20011;-43
2021/12/22 01:46:31;;;;;;;;;;;-3.80;99.90;;;;;;5071808;28;19929;-43
2021/12/22 01:49:10;;;;;;;;;;;-3.80;99.90;;;;;;5071866;28;19928;-43
2021/12/22 01:51:40;;;;;;;;;;;-3.80;99.90;;;;;;5067093;28;19931;-42
2021/12/22 01:54:07;;;;;;;;;;;-3.80;99.90;;;;;;5073269;28;20383;-42
2021/12/22 01:56:35;;;;;;;;;;;-3.80;99.90;;;;;;5070102;28;19925;-43
2021/12/22 01:59:02;;;;;;;;;;;-3.80;99.90;;;;;;5066900;28;19925;-43
2021/12/22 02:01:31;;;;;;;;;;;-3.80;99.90;;;;;;5071945;28;19928;-43
2021/12/22 02:03:58;;;;;;;;;;;-3.90;99.90;;;;;;5070428;28;19929;-43
2021/12/22 02:06:24;;;;;;;;;;;-3.90;99.90;;;;;;5081457;28;19932;-43
2021/12/22 02:08:52;;;;;;;;;;;-3.90;99.90;;;;;;5073904;28;20388;-43
2021/12/22 02:11:19;;;;;;;;;;;-3.90;99.90;;;;;;5072769;28;20434;-43
2021/12/22 02:13:50;;;;;;;;;;;-3.90;99.90;;;;;;5072785;28;20335;-43
2021/12/22 02:16:19;;;;;;;;;;;-3.90;99.90;;;;;;5070952;28;19932;-44
2021/12/22 02:18:49;;;;;;;;;;;-3.90;99.90;;;;;;5073526;28;19929;-43
2021/12/22 02:21:18;;;;;;;;;;;-3.90;99.90;;;;;;5073593;28;19928;-43
2021/12/22 02:23:45;;;;;;;;;;;-4.00;99.90;;;;;;5073945;28;19928;-42
2021/12/22 02:26:16;;;;;;;;;;;-4.00;99.90;;;;;;5072725;28;19978;-44
2021/12/22 02:28:46;;;;;;;;;;;-4.00;99.90;;;;;;5074249;28;19924;-43
2021/12/22 02:31:15;;;;;;;;;;;-4.00;99.90;;;;;;5071088;28;20380;-44
2021/12/22 02:33:43;;;;;;;;;;;-4.00;99.90;;;;;;5073203;28;19956;-43
2021/12/22 02:36:21;;;;;;;;;;;-4.00;99.90;;;;;;5072922;28;19929;-43
2021/12/22 02:38:50;;;;;;;;;;;-4.00;99.90;;;;;;5062755;28;19932;-43
2021/12/22 02:41:17;;;;;;;;;;;-4.00;99.90;;;;;;5066399;28;20474;-44
2021/12/22 02:43:46;;;;;;;;;;;-4.00;99.90;;;;;;5071090;28;19925;-42
2021/12/22 02:46:13;;;;;;;;;;;-4.00;99.90;;;;;;5072391;28;19932;-41
2021/12/22 02:48:40;;;;;;;;;;;-4.00;99.90;;;;;;5073662;28;20385;-42
2021/12/22 02:51:07;;;;;;;;;;;-4.00;99.90;;;;;;5073534;28;19924;-42
2021/12/22 02:53:41;;;;;;;;;;;-4.00;99.90;;;;;;5072883;28;20006;-42
2021/12/22 02:56:25;;;;;;;;;;;-4.00;99.90;;;;;;5073490;28;19924;-41
2021/12/22 02:59:00;;;;;;;;;;;-4.00;99.90;;;;;;5065686;28;19925;-42
2021/12/22 03:01:50;;;;;;;;;;;-4.00;99.90;;;;;;5072661;28;19924;-41
2021/12/22 03:04:17;;;;;;;;;;;-3.90;99.90;;;;;;5066601;28;19925;-42
2021/12/22 03:06:52;;;;;;;;;;;-4.00;99.90;;;;;;5071883;28;19986;-43
2021/12/22 03:09:19;;;;;;;;;;;-3.90;99.90;;;;;;5071587;28;19931;-42
2021/12/22 03:11:47;;;;;;;;;;;-4.00;99.90;;;;;;5071672;28;19935;-43
2021/12/22 03:14:14;;;;;;;;;;;-3.90;99.90;;;;;;5071919;28;20011;-42
2021/12/22 03:16:42;;;;;;;;;;;-3.90;99.90;;;;;;5072750;28;19924;-41
2021/12/22 03:19:09;;;;;;;;;;;-3.90;99.90;;;;;;5071727;28;19928;-42
2021/12/22 03:21:36;;;;;;;;;;;-3.90;99.90;;;;;;5072430;28;19954;-42
2021/12/22 03:24:03;;;;;;;;;;;-3.80;99.90;;;;;;5071344;28;19946;-42
2021/12/22 03:26:29;;;;;;;;;;;-3.90;99.90;;;;;;5072901;28;19925;-42
2021/12/22 03:28:57;;;;;;;;;;;-3.90;99.90;;;;;;5068401;28;19971;-43
2021/12/22 03:31:24;;;;;;;;;;;-3.80;99.90;;;;;;5070262;28;19933;-43
2021/12/22 03:33:51;;;;;;;;;;;-3.90;99.90;;;;;;5072511;28;19928;-43
2021/12/22 03:36:18;;;;;;;;;;;-3.90;99.90;;;;;;5072754;28;19935;-43
2021/12/22 03:38:46;;;;;;;;;;;-3.90;99.90;;;;;;5072221;28;20339;-42
2021/12/22 03:41:13;;;;;;;;;;;-3.90;99.90;;;;;;5072781;28;19978;-42
2021/12/22 03:43:40;;;;;;;;;;;-3.90;99.90;;;;;;5071030;28;19924;-43
2021/12/22 03:46:08;;;;;;;;;;;-3.80;99.90;;;;;;5071462;28;20307;-42
2021/12/22 03:48:35;;;;;;;;;;;-3.90;99.90;;;;;;5071542;28;20401;-42
2021/12/22 03:51:01;;;;;;;;;;;-3.90;99.90;;;;;;5071351;28;19924;-42
2021/12/22 03:53:28;;;;;;;;;;;-3.90;99.90;;;;;;5072481;28;19924;-43
2021/12/22 03:55:55;;;;;;;;;;;-3.80;99.90;;;;;;5071021;28;20423;-43
2021/12/22 03:58:22;;;;;;;;;;;-3.80;99.90;;;;;;5072274;28;20387;-42
2021/12/22 04:00:51;;;;;;;;;;;-3.80;99.90;;;;;;5071074;28;19983;-44
2021/12/22 04:03:22;;;;;;;;;;;-3.80;99.90;;;;;;5071226;28;19931;-44
2021/12/22 04:05:49;;;;;;;;;;;-3.80;99.90;;;;;;5075611;28;19975;-42
2021/12/22 04:08:18;;;;;;;;;;;-3.80;99.90;;;;;;5071997;28;19975;-42
2021/12/22 04:10:44;;;;;;;;;;;-3.80;99.90;;;;;;5071235;28;19929;-42
2021/12/22 04:13:11;;;;;;;;;;;-3.80;99.90;;;;;;5074634;28;19924;-43
2021/12/22 04:15:39;;;;;;;;;;;-3.80;99.90;;;;;;5075630;28;19993;-44
2021/12/22 04:18:05;;;;;;;;;;;-3.80;99.90;;;;;;5075725;28;19932;-42
2021/12/22 04:20:34;;;;;;;;;;;-3.80;99.90;;;;;;5075530;28;19974;-43
2021/12/22 04:23:01;;;;;;;;;;;-3.70;99.90;;;;;;5075838;28;19933;-41
2021/12/22 04:25:28;;;;;;;;;;;-3.70;99.90;;;;;;5074911;28;19967;-42
2021/12/22 04:27:55;;;;;;;;;;;-3.70;99.90;;;;;;5076167;28;19932;-43
2021/12/22 04:30:22;;;;;;;;;;;-3.70;99.90;;;;;;5075131;28;20388;-43
2021/12/22 04:32:49;;;;;;;;;;;-3.80;99.90;;;;;;5071705;28;19975;-42
2021/12/22 04:35:16;;;;;;;;;;;-3.70;99.90;;;;;;5075226;28;20031;-42
2021/12/22 04:37:44;;;;;;;;;;;-3.80;99.90;;;;;;5071433;28;20357;-42
2021/12/22 04:40:11;;;;;;;;;;;-3.70;99.90;;;;;;5076030;28;20430;-45
2021/12/22 04:42:38;;;;;;;;;;;-3.70;99.90;;;;;;5072936;28;19971;-42
2021/12/22 04:45:07;;;;;;;;;;;-3.70;99.90;;;;;;5074467;28;19928;-43
2021/12/22 04:47:34;;;;;;;;;;;-3.70;99.90;;;;;;5075792;28;19925;-42
2021/12/22 04:50:01;;;;;;;;;;;-3.70;99.90;;;;;;5076572;28;20014;-43
2021/12/22 04:52:35;;;;;;;;;;;-3.80;99.90;;;;;;5074200;28;20292;-44
2021/12/22 04:55:04;;;;;;;;;;;-3.70;99.90;;;;;;5072837;28;19931;-42
2021/12/22 04:57:31;;;;;;;;;;;-3.80;99.90;;;;;;5074699;28;19931;-42
2021/12/22 04:59:58;;;;;;;;;;;-3.80;99.90;;;;;;5074327;28;19924;-42
2021/12/22 05:02:25;;;;;;;;;;;-3.90;99.90;;;;;;5075554;28;19924;-46
2021/12/22 05:04:52;;;;;;;;;;;-3.90;99.90;;;;;;5074169;28;19990;-42
2021/12/22 05:07:18;;;;;;;;;;;-3.90;99.90;;;;;;5067344;28;20023;-42
2021/12/22 05:09:45;;;;;;;;;;;-3.90;99.90;;;;;;5070736;28;20023;-43
2021/12/22 05:12:13;;;;;;;;;;;-3.90;99.90;;;;;;5074141;28;19924;-44
2021/12/22 05:14:42;;;;;;;;;;;-3.90;99.90;;;;;;5072930;28;19979;-42
2021/12/22 05:17:17;;;;;;;;;;;-3.90;99.90;;;;;;5074019;28;19931;-42
2021/12/22 05:19:44;;;;;;;;;;;-3.90;99.90;;;;;;5075196;28;20300;-42
2021/12/22 05:22:11;;;;;;;;;;;-3.90;99.90;;;;;;5075038;28;20031;-42
2021/12/22 05:24:37;;;;;;;;;;;-3.90;99.90;;;;;;5074090;28;19971;-43
2021/12/22 05:27:07;;;;;;;;;;;-3.80;99.90;;;;;;5074594;28;19925;-43
2021/12/22 05:29:35;;;;;;;;;;;-3.90;99.90;;;;;;5073113;28;19943;-44
2021/12/22 05:32:03;;;;;;;;;;;-3.90;99.90;;;;;;5073039;28;19931;-43
2021/12/22 05:34:30;;;;;;;;;;;-3.90;99.90;;;;;;5074339;28;20015;-43
2021/12/22 05:36:57;;;;;;;;;;;-3.80;99.90;;;;;;5075151;28;19928;-43
2021/12/22 05:39:24;;;;;;;;;;;-3.80;99.90;;;;;;5073434;28;19925;-43
2021/12/22 05:41:50;;;;;;;;;;;-3.80;99.90;;;;;;5075006;28;19924;-43
2021/12/22 05:44:17;;;;;;;;;;;-3.80;99.90;;;;;;5070833;28;20288;-45
2021/12/22 05:46:45;;;;;;;;;;;-3.90;99.90;;;;;;5073165;28;19955;-44
2021/12/22 05:49:12;;;;;;;;;;;-3.80;99.90;;;;;;5073598;28;19967;-43
2021/12/22 05:51:39;;;;;;;;;;;-3.80;99.90;;;;;;5072287;28;20015;-46
2021/12/22 05:54:06;;;;;;;;;;;-3.80;99.90;;;;;;5073241;28;19994;-45
2021/12/22 05:56:32;;;;;;;;;;;-3.80;99.90;;;;;;5072835;28;19931;-44
2021/12/22 05:59:00;;;;;;;;;;;-3.80;99.90;;;;;;5072590;28;19973;-43
2021/12/22 06:01:27;;;;;;;;;;;-3.80;99.90;;;;;;5072773;28;19931;-44
2021/12/22 06:03:55;;;;;;;;;;;-3.80;99.90;;;;;;5073660;28;19928;-45
2021/12/22 06:06:21;;;;;;;;;;;-3.80;99.90;;;;;;5067392;28;19971;-44
2021/12/22 06:08:48;;;;;;;;;;;-3.80;99.90;;;;;;5068116;28;20453;-44
2021/12/22 06:11:15;;;;;;;;;;;-3.90;99.90;;;;;;5067411;28;19929;-43
2021/12/22 06:13:42;;;;;;;;;;;-3.90;99.90;;;;;;5074633;28;19925;-45
2021/12/22 06:16:09;;;;;;;;;;;-3.80;99.90;;;;;;5069585;28;19959;-43
2021/12/22 06:18:42;;;;;;;;;;;-3.80;99.90;;;;;;5085136;28;20350;-42
2021/12/22 06:21:10;;;;;;;;;;;-3.80;99.90;;;;;;5070696;28;19924;-43
2021/12/22 06:23:37;;;;;;;;;;;-3.80;99.90;;;;;;5076546;28;19924;-43
2021/12/22 06:26:03;;;;;;;;;;;-3.80;99.90;;;;;;5073183;28;19971;-42
2021/12/22 06:28:30;;;;;;;;;;;-3.80;99.90;;;;;;5075858;28;19956;-44
2021/12/22 06:30:57;;;;;;;;;;;-3.90;99.90;;;;;;5076161;28;19928;-44
2021/12/22 06:33:24;;;;;;;;;;;-3.90;99.90;;;;;;5068401;28;19994;-43
2021/12/22 06:35:50;;;;;;;;;;;-3.80;99.90;;;;;;5069582;28;19972;-42
2021/12/22 06:38:19;;;;;;;;;;;-3.90;99.90;;;;;;5072391;28;19976;-44
2021/12/22 06:40:45;;;;;;;;;;;-3.90;99.90;;;;;;5083604;28;19924;-43
2021/12/22 06:43:12;;;;;;;;;;;-3.80;99.90;;;;;;5077426;28;20441;-42
2021/12/22 06:45:39;;;;;;;;;;;-3.90;99.90;;;;;;5072393;28;19939;-44
2021/12/22 06:48:06;;;;;;;;;;;-3.90;99.90;;;;;;5064819;28;20023;-43
2021/12/22 06:50:32;;;;;;;;;;;-3.90;99.90;;;;;;5064236;28;20312;-46
2021/12/22 06:52:59;;;;;;;;;;;-4.00;99.90;;;;;;5044106;28;19986;-46
2021/12/22 06:55:27;;;;;;;;;;;-4.00;99.90;;;;;;5066706;28;19931;-43
2021/12/22 06:57:54;;;;;;;;;;;-4.00;99.90;;;;;;5066981;28;19964;-43
2021/12/22 07:00:21;;;;;;;;;;;-4.00;99.90;;;;;;5061785;28;19993;-46
2021/12/22 07:02:48;;;;;;;;;;;-4.00;99.90;;;;;;5070743;28;20369;-43
2021/12/22 07:05:14;;;;;;;;;;;-4.00;99.90;;;;;;5065499;28;19980;-43
2021/12/22 07:07:41;;;;;;;;;;;-4.00;99.90;;;;;;5068022;28;19928;-43
2021/12/22 07:10:10;;;;;;;;;;;-4.00;99.90;;;;;;5067836;28;20358;-43
2021/12/22 07:12:38;;;;;;;;;;;-4.00;99.90;;;;;;5067524;28;19928;-43
2021/12/22 07:15:09;;;;;;;;;;;-4.00;99.90;;;;;;5068542;28;21535;-45
2021/12/22 07:17:36;;;;;;;;;;;-4.00;99.90;;;;;;5068487;28;20373;-43
2021/12/22 07:20:05;;;;;;;;;;;-4.00;99.90;;;;;;5067407;28;19932;-42
2021/12/22 07:22:32;;;;;;;;;;;-4.00;99.90;;;;;;5068558;28;19925;-45
2021/12/22 07:24:59;;;;;;;;;;;-4.10;99.90;;;;;;5070057;28;19934;-45
2021/12/22 07:27:25;;;;;;;;;;;-4.10;99.90;;;;;;5070580;28;19932;-43
2021/12/22 07:29:53;;;;;;;;;;;-4.10;99.90;;;;;;5068552;28;20019;-45
2021/12/22 07:32:20;;;;;;;;;;;-4.10;99.90;;;;;;5066630;28;20283;-43
2021/12/22 07:34:48;;;;;;;;;;;-4.10;99.90;;;;;;5067471;28;19932;-44
2021/12/22 07:37:15;;;;;;;;;;;-4.10;99.90;;;;;;5066029;28;19995;-43
2021/12/22 07:39:42;;;;;;;;;;;-4.10;99.90;;;;;;5066576;28;19928;-46
2021/12/22 07:42:08;;;;;;;;;;;-4.10;99.90;;;;;;5068544;28;20224;-45
2021/12/22 07:44:35;;;;;;;;;;;-4.10;99.90;;;;;;5060631;28;20421;-42
2021/12/22 07:47:04;;;;;;;;;;;-4.10;99.90;;;;;;5064794;28;20396;-43
2021/12/22 07:49:31;;;;;;;;;;;-4.10;99.90;;;;;;5069442;28;20025;-42
2021/12/22 07:51:57;;;;;;;;;;;-4.10;99.90;;;;;;5070350;28;19924;-44
2021/12/22 07:54:24;;;;;;;;;;;-4.10;99.90;;;;;;5070527;28;20372;-43
2021/12/22 07:56:51;;;;;;;;;;;-4.10;99.90;;;;;;5060216;28;19976;-44
2021/12/22 07:59:18;;;;;;;;;;;-4.00;99.90;;;;;;5061357;28;19932;-45
2021/12/22 08:01:45;;;;;;;;;;;-4.10;99.90;;;;;;5061025;28;20273;-43
2021/12/22 08:04:13;;;;;;;;;;;-4.00;99.90;;;;;;5065833;28;20340;-46
2021/12/22 08:06:39;;;;;;;;;;;-4.00;99.90;;;;;;5063119;28;19981;-45
2021/12/22 08:09:06;;;;;;;;;;;-4.00;99.90;;;;;;5064147;28;19939;-43
2021/12/22 08:11:33;;;;;;;;;;;-4.00;99.90;;;;;;5065063;28;19963;-46
2021/12/22 08:14:00;;;;;;;;;;;-3.90;99.90;;;;;;5064863;28;20450;-44
2021/12/22 08:16:27;;;;;;;;;;;-3.90;99.90;;;;;;5064207;28;19981;-42
2021/12/22 08:18:53;;;;;;;;;;;-3.80;99.90;;;;;;5059204;28;19974;-46
2021/12/22 08:21:22;;;;;;;;;;;-3.90;99.90;;;;;;5051455;28;20037;-49
2021/12/22 08:23:48;;;;;;;;;;;-3.90;99.90;;;;;;5067735;28;19924;-44
2021/12/22 08:26:15;;;;;;;;;;;-3.80;99.90;;;;;;5062843;28;20010;-44
2021/12/22 08:28:42;;;;;;;;;;;-3.80;99.90;;;;;;5065975;28;19986;-45
2021/12/22 08:31:09;;;;;;;;;;;-3.80;99.90;;;;;;5069129;28;19925;-48
2021/12/22 08:33:43;;;;;;;;;;;-3.80;99.90;;;;;;5069289;28;19928;-43
2021/12/22 08:38:56;;;;;;;;;;;-3.70;99.90;;;;;;5068499;28;19924;-46
2021/12/22 08:41:24;;;;;;;;;;;-3.60;99.90;;;;;;5064744;28;20124;-43
2021/12/22 08:43:51;;;;;;;;;;;-3.50;99.90;;;;;;5066279;28;19977;-43
2021/12/22 08:46:18;;;;;;;;;;;-3.50;99.90;;;;;;5068294;28;19932;-43
2021/12/22 08:48:44;;;;;;;;;;;-3.40;99.90;;;;;;5069839;28;19929;-42
2021/12/22 08:51:11;;;;;;;;;;;-3.40;99.90;;;;;;5068580;28;20019;-43
2021/12/22 08:53:38;;;;;;;;;;;-3.30;99.90;;;;;;5074154;28;19963;-43
2021/12/22 08:56:06;;;;;;;;;;;-3.30;99.90;;;;;;5069711;28;19925;-43
2021/12/22 08:58:33;;;;;;;;;;;-3.20;99.90;;;;;;5067335;28;20095;-47
2021/12/22 09:01:00;;;;;;;;;;;-3.20;99.90;;;;;;5072244;28;20017;-43
2021/12/22 09:03:27;;;;;;;;;;;-3.20;99.90;;;;;;5073862;28;19928;-43
2021/12/22 09:05:53;;;;;;;;;;;-3.10;99.90;;;;;;5071201;28;20307;-42
2021/12/22 09:08:20;;;;;;;;;;;-3.00;99.90;;;;;;5073119;28;19991;-43
2021/12/22 09:10:47;;;;;;;;;;;-2.90;99.90;;;;;;5071383;28;20246;-43
2021/12/22 09:13:17;;;;;;;;;;;-2.90;99.90;;;;;;5070241;28;20423;-45
2021/12/22 09:15:43;;;;;;;;;;;-2.80;99.90;;;;;;5063245;28;19928;-43
2021/12/22 09:18:10;;;;;;;;;;;-2.80;99.90;;;;;;5070372;28;19928;-43
2021/12/22 09:20:37;;;;;;;;;;;-2.70;99.90;;;;;;5081095;28;19968;-44
2021/12/22 09:23:04;;;;;;;;;;;-2.60;99.90;;;;;;5068985;28;19931;-45
2021/12/22 09:25:30;;;;;;;;;;;-2.70;99.90;;;;;;5070009;28;19931;-43
2021/12/22 09:27:58;;;;;;;;;;;-2.60;99.90;;;;;;5073489;28;19972;-42
2021/12/22 09:30:26;;;;;;;;;;;-2.50;99.90;;;;;;5067476;28;19928;-46
2021/12/22 09:32:53;;;;;;;;;;;-2.50;99.90;;;;;;5066580;28;19928;-44
2021/12/22 09:35:21;;;;;;;;;;;-2.50;99.90;;;;;;5066500;28;19954;-42
2021/12/22 09:37:47;;;;;;;;;;;-2.50;99.90;;;;;;5073967;28;20086;-45
2021/12/22 09:40:14;;;;;;;;;;;-2.40;99.90;;;;;;5067325;28;19928;-43
2021/12/22 09:42:41;;;;;;;;;;;-2.30;99.90;;;;;;5072452;28;19924;-43
2021/12/22 09:45:08;;;;;;;;;;;-2.30;99.90;;;;;;5068824;28;20430;-44
2021/12/22 09:47:50;;;;;;;;;;;-2.20;99.90;;;;;;5068868;28;19939;-44
2021/12/22 09:50:38;;;;;;;;;;;-2.20;99.90;;;;;;5065394;28;20037;-44
2021/12/22 09:53:04;;;;;;;;;;;-2.10;99.90;;;;;;5066068;28;19931;-46
2021/12/22 09:55:31;;;;;;;;;;;-2.10;99.90;;;;;;5078480;28;19931;-42
2021/12/22 09:57:58;;;;;;;;;;;-2.00;99.90;;;;;;5068223;28;19968;-43
2021/12/22 10:00:25;;;;;;;;;;;-2.00;99.90;;;;;;5068195;28;19925;-48
2021/12/22 10:02:53;;;;;;;;;;;-1.90;99.90;;;;;;5065855;28;20410;-45
2021/12/22 10:05:20;;;;;;;;;;;-1.90;99.90;;;;;;5070471;28;19928;-46
2021/12/22 10:07:47;;;;;;;;;;;-1.70;99.90;;;;;;5070129;28;20368;-43
2021/12/22 10:10:15;;;;;;;;;;;-1.70;99.90;;;;;;5069719;28;19957;-44
2021/12/22 10:12:44;;;;;;;;;;;-1.60;99.90;;;;;;5069317;28;19933;-43
2021/12/22 10:15:12;;;;;;;;;;;-1.50;99.90;;;;;;5065564;28;19928;-43
2021/12/22 10:17:39;;;;;;;;;;;-1.40;99.90;;;;;;5070951;28;19932;-46
2021/12/22 10:20:08;;;;;;;;;;;-1.40;99.90;;;;;;5081610;28;20044;-44
2021/12/22 10:22:36;;;;;;;;;;;-1.30;99.90;;;;;;5071213;28;20537;-43
2021/12/22 10:25:08;;;;;;;;;;;-1.30;99.90;;;;;;5070649;28;19936;-44
2021/12/22 10:27:35;;;;;;;;;;;-1.20;99.90;;;;;;5070160;28;20296;-44
2021/12/22 10:30:08;;;;;;;;;;;-1.20;99.90;;;;;;5069054;28;19924;-44
2021/12/22 10:32:35;;;;;;;;;;;-1.20;99.90;;;;;;5068317;28;20278;-43
2021/12/22 10:35:03;;;;;;;;;;;-1.20;99.90;;;;;;5068947;28;19928;-43
2021/12/22 10:37:32;;;;;;;;;;;-1.10;99.90;;;;;;5075019;28;19928;-43
2021/12/22 10:39:58;;;;;;;;;;;-1.10;99.90;;;;;;5066413;28;19933;-44
2021/12/22 10:42:39;;;;;;;;;;;-1.10;99.90;;;;;;5067252;28;19962;-44
2021/12/22 10:45:11;;;;;;;;;;;-1.00;99.90;;;;;;5069381;28;19928;-46
2021/12/22 10:49:14;;;;;;;;;;;-1.10;99.90;;;;;;5064095;28;19929;-44
2021/12/22 10:50:24;;;;;;;;;;;-1.00;99.90;;;;;;5068364;28;19931;-44
2021/12/22 10:52:52;;;;;;;;;;;-1.00;99.90;;;;;;5066142;28;19928;-43
2021/12/22 10:55:18;;;;;;;;;;;-1.00;99.90;;;;;;5064738;28;19967;-47
2021/12/22 10:57:46;;;;;;;;;;;-0.90;99.90;;;;;;5061018;28;19968;-44
2021/12/22 11:00:16;;;;;;;;;;;-0.80;99.90;;;;;;5065152;28;19929;-48
2021/12/22 11:02:49;;;;;;;;;;;-0.80;99.90;;;;;;5070982;28;20411;-44
2021/12/22 11:05:20;;;;;;;;;;;-0.70;99.90;;;;;;5066966;28;19955;-44
2021/12/22 11:07:47;;;;;;;;;;;-0.60;99.90;;;;;;5070581;28;20019;-46
2021/12/22 11:10:32;;;;;;;;;;;-0.50;99.90;;;;;;5067103;28;19925;-45
2021/12/22 11:13:03;;;;;;;;;;;-0.40;99.90;;;;;;5069612;28;19924;-44
2021/12/22 11:15:30;;;;;;;;;;;-0.40;99.90;;;;;;5072795;28;20027;-46
2021/12/22 11:17:57;;;;;;;;;;;-0.40;99.90;;;;;;5073673;28;20406;-44
2021/12/22 11:20:24;;;;;;;;;;;-0.30;99.90;;;;;;5069290;28;20007;-44
2021/12/22 11:22:57;;;;;;;;;;;-0.30;99.90;;;;;;5088717;28;19935;-44
2021/12/22 11:25:24;;;;;;;;;;;-0.30;99.90;;;;;;5076959;28;19968;-44
2021/12/22 11:27:50;;;;;;;;;;;-0.20;99.90;;;;;;5097418;28;20002;-43
2021/12/22 11:30:18;;;;;;;;;;;-0.20;99.90;;;;;;5059338;28;20299;-44
2021/12/22 11:32:47;;;;;;;;;;;-0.20;99.90;;;;;;5068547;28;20027;-44
2021/12/22 11:35:14;;;;;;;;;;;-0.10;99.90;;;;;;5083319;28;20447;-46
2021/12/22 11:37:41;;;;;;;;;;;-0.20;99.90;;;;;;5067489;28;20035;-46
2021/12/22 11:40:09;;;;;;;;;;;-0.10;99.90;;;;;;5069158;28;19997;-43
2021/12/22 11:42:38;;;;;;;;;;;-0.20;99.90;;;;;;5071623;28;19968;-46
2021/12/22 11:45:05;;;;;;;;;;;-0.20;99.90;;;;;;5063984;28;19924;-43
2021/12/22 11:47:37;;;;;;;;;;;-0.10;99.90;;;;;;5074088;28;19971;-44
2021/12/22 11:50:04;;;;;;;;;;;-0.10;99.90;;;;;;5066709;28;19976;-43
2021/12/22 11:52:36;;;;;;;;;;;-0.20;99.90;;;;;;5060562;28;20607;-43
2021/12/22 11:55:10;;;;;;;;;;;-0.20;99.90;;;;;;5080046;28;19924;-43
2021/12/22 11:57:37;;;;;;;;;;;-0.20;99.90;;;;;;5081197;28;20797;-44
2021/12/22 12:00:22;;;;;;;;;;;-0.20;99.90;;;;;;5077343;28;20001;-43
2021/12/22 12:02:50;;;;;;;;;;;-0.10;99.90;;;;;;5066155;28;19958;-42
2021/12/22 12:05:17;;;;;;;;;;;-0.20;99.90;;;;;;5062170;28;20353;-42
2021/12/22 12:07:46;;;;;;;;;;;-0.10;99.90;;;;;;5069341;28;20395;-44
2021/12/22 12:10:31;;;;;;;;;;;-0.10;99.90;;;;;;5068157;28;19928;-45
2021/12/22 12:13:03;;;;;;;;;;;0.00;99.90;;;;;;5067269;28;20296;-44
2021/12/22 12:15:56;;;;;;;;;;;0.00;99.90;;;;;;5057414;28;20224;-44
2021/12/22 12:21:40;;;;;;;;;;;0.00;99.90;;;;;;5068005;28;19924;-43
2021/12/22 12:24:22;;;;;;;;;;;0.10;99.90;;;;;;5072628;28;20400;-43
2021/12/22 12:26:50;;;;;;;;;;;0.20;99.90;;;;;;5073838;28;19970;-43
2021/12/22 12:29:17;;;;;;;;;;;0.30;99.90;;;;;;5074808;28;20020;-43
2021/12/22 12:31:44;;;;;;;;;;;0.30;99.90;;;;;;5076825;28;19975;-43
2021/12/22 12:34:20;;;;;;;;;;;0.30;99.90;;;;;;5074825;28;20391;-43
2021/12/22 12:36:47;;;;;;;;;;;0.40;99.90;;;;;;5074332;28;19932;-43
2021/12/22 12:39:13;;;;;;;;;;;0.40;99.90;;;;;;5072945;28;19967;-44
2021/12/22 12:41:40;;;;;;;;;;;0.40;99.90;;;;;;5077789;28;19939;-44
2021/12/22 12:44:09;;;;;;;;;;;0.50;99.90;;;;;;5078079;28;19925;-45
2021/12/22 12:46:41;;;;;;;;;;;0.50;99.90;;;;;;5081546;28;20312;-43
2021/12/22 12:49:26;;;;;;;;;;;0.40;99.90;;;;;;5070019;28;19925;-44
2021/12/22 12:51:55;;;;;;;;;;;0.40;99.90;;;;;;5069842;28;19924;-45
2021/12/22 12:54:26;;;;;;;;;;;0.40;99.90;;;;;;5073892;28;19982;-46
2021/12/22 12:56:54;;;;;;;;;;;0.40;99.90;;;;;;5063444;28;19971;-46
2021/12/22 12:59:26;;;;;;;;;;;0.40;99.90;;;;;;5071382;28;19947;-43
2021/12/22 13:01:59;;;;;;;;;;;0.30;99.90;;;;;;5073019;28;20019;-45
2021/12/22 13:04:27;;;;;;;;;;;0.30;99.90;;;;;;5070495;28;19978;-43
2021/12/22 13:06:54;;;;;;;;;;;0.30;99.90;;;;;;5066535;28;19960;-44
2021/12/22 13:09:22;;;;;;;;;;;0.40;99.90;;;;;;5072302;28;19928;-44
2021/12/22 13:11:57;;;;;;;;;;;0.40;99.90;;;;;;5094021;28;20674;-43
2021/12/22 13:17:13;;;;;;;;;;;0.30;99.90;;;;;;5068637;28;19935;-43
2021/12/22 13:19:40;;;;;;;;;;;0.30;99.90;;;;;;5070093;28;19964;-43
2021/12/22 13:22:16;;;;;;;;;;;0.30;99.90;;;;;;5072762;28;21690;-44
2021/12/22 13:24:42;;;;;;;;;;;0.30;99.90;;;;;;5073771;28;19960;-44
2021/12/22 13:27:09;;;;;;;;;;;0.30;99.90;;;;;;5074080;28;19932;-44
2021/12/22 13:29:39;;;;;;;;;;;0.20;99.90;;;;;;5071185;28;19928;-43
2021/12/22 13:32:07;;;;;;;;;;;0.20;99.90;;;;;;5071181;28;19924;-43
2021/12/22 13:34:42;;;;;;;;;;;0.30;99.90;;;;;;5077240;28;19970;-43
2021/12/22 13:37:09;;;;;;;;;;;0.20;99.90;;;;;;5072062;28;19931;-42
2021/12/22 13:39:41;;;;;;;;;;;0.30;99.90;;;;;;5070252;28;21493;-43
2021/12/22 13:42:08;;;;;;;;;;;0.30;99.90;;;;;;5076030;28;19960;-43
2021/12/22 13:44:38;;;;;;;;;;;0.20;99.90;;;;;;5074081;28;19925;-43
2021/12/22 13:47:05;;;;;;;;;;;0.20;99.90;;;;;;5074105;28;20008;-45
2021/12/22 13:49:32;;;;;;;;;;;0.20;99.90;;;;;;5073666;28;19924;-44
2021/12/22 13:51:59;;;;;;;;;;;0.10;99.90;;;;;;5068845;28;19925;-43
2021/12/22 13:54:27;;;;;;;;;;;0.10;99.90;;;;;;5069442;28;19964;-43
2021/12/22 13:56:57;;;;;;;;;;;0.10;99.90;;;;;;5066195;28;19952;-44
2021/12/22 13:59:24;;;;;;;;;;;0.10;99.90;;;;;;5082193;28;19975;-45
2021/12/22 14:01:53;;;;;;;;;;;0.00;99.90;;;;;;5073635;28;19958;-46
2021/12/22 14:04:20;;;;;;;;;;;0.00;99.90;;;;;;5072540;28;19931;-44
2021/12/22 14:06:48;;;;;;;;;;;0.00;99.90;;;;;;5068971;28;20331;-44
2021/12/22 14:09:15;;;;;;;;;;;-0.10;99.90;;;;;;5071199;28;19993;-44
2021/12/22 14:11:42;;;;;;;;;;;-0.10;99.90;;;;;;5070029;28;20446;-42
2021/12/22 14:14:23;;;;;;;;;;;0.00;99.90;;;;;;5073646;28;19982;-45
2021/12/22 14:16:50;;;;;;;;;;;-0.10;99.90;;;;;;5070431;28;19960;-43
2021/12/22 14:19:19;;;;;;;;;;;-0.10;99.90;;;;;;5096679;27;20274;-43
2021/12/22 14:21:47;;;;;;;;;;;-0.20;99.90;;;;;;5070125;28;19978;-43
2021/12/22 14:24:19;;;;;;;;;;;-0.20;99.90;;;;;;5071815;28;19932;-46
2021/12/22 14:26:47;;;;;;;;;;;-0.20;99.90;;;;;;5074422;28;19925;-45
2021/12/22 14:29:14;;;;;;;;;;;-0.20;99.90;;;;;;5078293;28;20011;-43
2021/12/22 14:31:53;;;;;;;;;;;-0.20;99.90;;;;;;5079521;28;19960;-45
2021/12/22 14:34:22;;;;;;;;;;;-0.20;99.90;;;;;;5070620;28;19938;-43